sensor_id;sensor_type;location;lat;lon;timestamp;P1;durP1;ratioP1;P2;durP2;ratioP2
9884;SDS011;4981;50.966;4.842;2023-07-02T00:01:56;23.60;;;12.40;;
9884;SDS011;4981;50.966;4.842;2023-07-02T00:04:24;23.83;;;12.77;;
9884;SDS011;4981;50.966;4.842;2023-07-02T00:06:51;23.53;;;13.30;;
9884;SDS011;4981;50.966;4.842;2023-07-02T00:09:18;22.40;;;12.77;;
9884;SDS011;4981;50.966;4.842;2023-07-02T00:11:45;23.97;;;12.90;;
9884;SDS011;4981;50.966;4.842;2023-07-02T00:42:17;25.63;;;14.33;;
9884;SDS011;4981;50.966;4.842;2023-07-02T00:44:45;31.63;;;14.80;;
9884;SDS011;4981;50.966;4.842;2023-07-02T00:47:12;27.03;;;13.83;;
9884;SDS011;4981;50.966;4.842;2023-07-02T00:49:43;30.47;;;15.27;;
9884;SDS011;4981;50.966;4.842;2023-07-02T00:52:10;29.77;;;15.03;;
9884;SDS011;4981;50.966;4.842;2023-07-02T00:54:37;28.03;;;14.90;;
9884;SDS011;4981;50.966;4.842;2023-07-02T00:57:05;26.13;;;14.50;;
9884;SDS011;4981;50.966;4.842;2023-07-02T00:59:34;30.37;;;16.00;;
9884;SDS011;4981;50.966;4.842;2023-07-02T01:02:03;26.30;;;15.10;;
9884;SDS011;4981;50.966;4.842;2023-07-02T01:04:31;25.57;;;14.47;;
9884;SDS011;4981;50.966;4.842;2023-07-02T01:06:58;27.17;;;16.33;;
9884;SDS011;4981;50.966;4.842;2023-07-02T01:09:25;29.30;;;15.13;;
9884;SDS011;4981;50.966;4.842;2023-07-02T01:11:53;27.00;;;15.07;;
9884;SDS011;4981;50.966;4.842;2023-07-02T01:14:23;26.90;;;15.07;;
9884;SDS011;4981;50.966;4.842;2023-07-02T01:16:54;28.23;;;16.60;;
9884;SDS011;4981;50.966;4.842;2023-07-02T01:19:31;27.63;;;15.50;;
9884;SDS011;4981;50.966;4.842;2023-07-02T01:22:05;37.73;;;16.10;;
9884;SDS011;4981;50.966;4.842;2023-07-02T01:24:33;30.00;;;16.13;;
9884;SDS011;4981;50.966;4.842;2023-07-02T01:27:00;25.77;;;15.17;;
9884;SDS011;4981;50.966;4.842;2023-07-02T01:29:28;28.00;;;16.13;;
9884;SDS011;4981;50.966;4.842;2023-07-02T01:31:56;32.67;;;17.13;;
9884;SDS011;4981;50.966;4.842;2023-07-02T01:34:23;34.97;;;17.23;;
9884;SDS011;4981;50.966;4.842;2023-07-02T01:36:52;28.10;;;15.87;;
9884;SDS011;4981;50.966;4.842;2023-07-02T01:39:18;33.13;;;17.17;;
9884;SDS011;4981;50.966;4.842;2023-07-02T01:41:49;30.90;;;17.70;;
9884;SDS011;4981;50.966;4.842;2023-07-02T01:44:17;28.57;;;17.43;;
9884;SDS011;4981;50.966;4.842;2023-07-02T01:46:44;31.93;;;16.90;;
9884;SDS011;4981;50.966;4.842;2023-07-02T01:49:13;35.53;;;17.47;;
9884;SDS011;4981;50.966;4.842;2023-07-02T01:51:40;32.07;;;16.77;;
9884;SDS011;4981;50.966;4.842;2023-07-02T01:54:13;36.77;;;17.27;;
9884;SDS011;4981;50.966;4.842;2023-07-02T01:56:40;33.63;;;17.87;;
9884;SDS011;4981;50.966;4.842;2023-07-02T01:59:07;32.10;;;17.63;;
9884;SDS011;4981;50.966;4.842;2023-07-02T02:01:34;29.87;;;17.43;;
9884;SDS011;4981;50.966;4.842;2023-07-02T02:04:00;36.70;;;17.63;;
9884;SDS011;4981;50.966;4.842;2023-07-02T02:06:27;34.00;;;18.70;;
9884;SDS011;4981;50.966;4.842;2023-07-02T02:08:54;36.67;;;18.47;;
9884;SDS011;4981;50.966;4.842;2023-07-02T02:11:23;33.40;;;18.50;;
9884;SDS011;4981;50.966;4.842;2023-07-02T02:13:50;34.07;;;17.50;;
9884;SDS011;4981;50.966;4.842;2023-07-02T02:16:17;32.60;;;18.57;;
9884;SDS011;4981;50.966;4.842;2023-07-02T02:18:44;35.20;;;19.00;;
9884;SDS011;4981;50.966;4.842;2023-07-02T02:21:10;35.43;;;18.63;;
9884;SDS011;4981;50.966;4.842;2023-07-02T02:23:37;37.47;;;17.83;;
9884;SDS011;4981;50.966;4.842;2023-07-02T02:26:04;35.37;;;18.80;;
9884;SDS011;4981;50.966;4.842;2023-07-02T02:28:33;33.17;;;19.37;;
9884;SDS011;4981;50.966;4.842;2023-07-02T02:30:59;32.93;;;18.93;;
9884;SDS011;4981;50.966;4.842;2023-07-02T02:33:27;38.20;;;19.77;;
9884;SDS011;4981;50.966;4.842;2023-07-02T02:35:54;36.50;;;18.37;;
9884;SDS011;4981;50.966;4.842;2023-07-02T02:38:21;33.83;;;19.13;;
9884;SDS011;4981;50.966;4.842;2023-07-02T02:40:48;39.00;;;20.10;;
9884;SDS011;4981;50.966;4.842;2023-07-02T02:43:15;36.30;;;20.17;;
9884;SDS011;4981;50.966;4.842;2023-07-02T02:45:44;35.93;;;19.53;;
9884;SDS011;4981;50.966;4.842;2023-07-02T02:48:11;36.43;;;19.97;;
9884;SDS011;4981;50.966;4.842;2023-07-02T02:50:38;37.17;;;18.93;;
9884;SDS011;4981;50.966;4.842;2023-07-02T02:53:06;39.27;;;20.80;;
9884;SDS011;4981;50.966;4.842;2023-07-02T02:55:33;36.80;;;20.00;;
9884;SDS011;4981;50.966;4.842;2023-07-02T02:58:00;40.30;;;20.27;;
9884;SDS011;4981;50.966;4.842;2023-07-02T03:00:27;40.53;;;19.47;;
9884;SDS011;4981;50.966;4.842;2023-07-02T03:02:56;37.77;;;19.53;;
9884;SDS011;4981;50.966;4.842;2023-07-02T03:05:23;37.47;;;19.73;;
9884;SDS011;4981;50.966;4.842;2023-07-02T03:07:50;32.37;;;19.10;;
9884;SDS011;4981;50.966;4.842;2023-07-02T03:10:17;35.43;;;19.47;;
9884;SDS011;4981;50.966;4.842;2023-07-02T03:12:44;36.97;;;19.20;;
9884;SDS011;4981;50.966;4.842;2023-07-02T03:15:11;41.10;;;19.83;;
9884;SDS011;4981;50.966;4.842;2023-07-02T03:17:38;38.33;;;19.87;;
9884;SDS011;4981;50.966;4.842;2023-07-02T03:20:07;38.30;;;21.00;;
9884;SDS011;4981;50.966;4.842;2023-07-02T03:22:34;36.80;;;20.07;;
9884;SDS011;4981;50.966;4.842;2023-07-02T03:25:02;37.07;;;20.83;;
9884;SDS011;4981;50.966;4.842;2023-07-02T03:27:29;38.83;;;20.20;;
9884;SDS011;4981;50.966;4.842;2023-07-02T03:29:56;39.13;;;21.17;;
9884;SDS011;4981;50.966;4.842;2023-07-02T03:32:23;39.73;;;20.40;;
9884;SDS011;4981;50.966;4.842;2023-07-02T03:34:50;40.00;;;20.87;;
9884;SDS011;4981;50.966;4.842;2023-07-02T03:37:18;39.50;;;21.10;;
9884;SDS011;4981;50.966;4.842;2023-07-02T03:39:45;39.17;;;21.07;;
9884;SDS011;4981;50.966;4.842;2023-07-02T03:42:12;41.27;;;21.43;;
9884;SDS011;4981;50.966;4.842;2023-07-02T03:44:39;39.20;;;20.60;;
9884;SDS011;4981;50.966;4.842;2023-07-02T03:47:06;40.67;;;19.90;;
9884;SDS011;4981;50.966;4.842;2023-07-02T03:49:34;40.30;;;21.13;;
9884;SDS011;4981;50.966;4.842;2023-07-02T03:52:01;39.70;;;20.63;;
9884;SDS011;4981;50.966;4.842;2023-07-02T03:54:29;46.63;;;21.57;;
9884;SDS011;4981;50.966;4.842;2023-07-02T03:56:56;42.03;;;20.23;;
9884;SDS011;4981;50.966;4.842;2023-07-02T03:59:23;38.43;;;20.83;;
9884;SDS011;4981;50.966;4.842;2023-07-02T04:01:50;38.90;;;21.63;;
9884;SDS011;4981;50.966;4.842;2023-07-02T04:04:17;28.17;;;16.87;;
9884;SDS011;4981;50.966;4.842;2023-07-02T04:06:44;42.50;;;21.30;;
9884;SDS011;4981;50.966;4.842;2023-07-02T04:09:11;42.77;;;20.77;;
9884;SDS011;4981;50.966;4.842;2023-07-02T04:11:39;37.80;;;21.30;;
9884;SDS011;4981;50.966;4.842;2023-07-02T04:14:06;40.60;;;20.10;;
9884;SDS011;4981;50.966;4.842;2023-07-02T04:16:33;40.67;;;20.97;;
9884;SDS011;4981;50.966;4.842;2023-07-02T04:19:00;41.97;;;22.13;;
9884;SDS011;4981;50.966;4.842;2023-07-02T04:21:27;40.57;;;21.23;;
9884;SDS011;4981;50.966;4.842;2023-07-02T04:23:54;44.20;;;22.00;;
9884;SDS011;4981;50.966;4.842;2023-07-02T04:26:21;41.33;;;20.37;;
9884;SDS011;4981;50.966;4.842;2023-07-02T04:28:53;44.13;;;22.23;;
9884;SDS011;4981;50.966;4.842;2023-07-02T04:31:23;42.50;;;20.47;;
9884;SDS011;4981;50.966;4.842;2023-07-02T04:33:50;42.80;;;20.57;;
9884;SDS011;4981;50.966;4.842;2023-07-02T04:36:17;40.97;;;21.50;;
9884;SDS011;4981;50.966;4.842;2023-07-02T04:38:44;40.27;;;21.57;;
9884;SDS011;4981;50.966;4.842;2023-07-02T04:41:11;43.83;;;22.13;;
9884;SDS011;4981;50.966;4.842;2023-07-02T04:43:38;43.93;;;22.70;;
9884;SDS011;4981;50.966;4.842;2023-07-02T04:46:06;46.30;;;23.07;;
9884;SDS011;4981;50.966;4.842;2023-07-02T04:48:33;49.20;;;22.43;;
9884;SDS011;4981;50.966;4.842;2023-07-02T04:51:01;49.93;;;23.40;;
9884;SDS011;4981;50.966;4.842;2023-07-02T04:53:28;41.97;;;21.97;;
9884;SDS011;4981;50.966;4.842;2023-07-02T04:55:55;46.93;;;22.53;;
9884;SDS011;4981;50.966;4.842;2023-07-02T04:58:23;46.97;;;24.10;;
9884;SDS011;4981;50.966;4.842;2023-07-02T05:00:50;49.23;;;23.30;;
9884;SDS011;4981;50.966;4.842;2023-07-02T05:03:18;44.63;;;21.90;;
9884;SDS011;4981;50.966;4.842;2023-07-02T05:05:45;43.83;;;24.27;;
9884;SDS011;4981;50.966;4.842;2023-07-02T05:08:12;51.17;;;23.93;;
9884;SDS011;4981;50.966;4.842;2023-07-02T05:10:40;47.03;;;23.03;;
9884;SDS011;4981;50.966;4.842;2023-07-02T05:13:07;49.03;;;24.17;;
9884;SDS011;4981;50.966;4.842;2023-07-02T05:15:34;46.07;;;24.13;;
9884;SDS011;4981;50.966;4.842;2023-07-02T05:18:01;48.80;;;23.83;;
9884;SDS011;4981;50.966;4.842;2023-07-02T05:20:29;44.43;;;23.53;;
9884;SDS011;4981;50.966;4.842;2023-07-02T05:22:56;53.67;;;24.27;;
9884;SDS011;4981;50.966;4.842;2023-07-02T05:25:23;45.83;;;25.30;;
9884;SDS011;4981;50.966;4.842;2023-07-02T05:27:50;46.47;;;24.07;;
9884;SDS011;4981;50.966;4.842;2023-07-02T05:30:17;46.63;;;23.67;;
9884;SDS011;4981;50.966;4.842;2023-07-02T05:32:44;46.63;;;23.70;;
9884;SDS011;4981;50.966;4.842;2023-07-02T05:35:11;45.73;;;23.57;;
9884;SDS011;4981;50.966;4.842;2023-07-02T05:37:39;50.60;;;25.00;;
9884;SDS011;4981;50.966;4.842;2023-07-02T05:40:07;50.67;;;24.33;;
9884;SDS011;4981;50.966;4.842;2023-07-02T05:42:34;52.90;;;25.13;;
9884;SDS011;4981;50.966;4.842;2023-07-02T05:45:03;51.87;;;25.50;;
9884;SDS011;4981;50.966;4.842;2023-07-02T05:47:30;47.57;;;24.00;;
9884;SDS011;4981;50.966;4.842;2023-07-02T05:49:57;53.53;;;23.90;;
9884;SDS011;4981;50.966;4.842;2023-07-02T05:52:24;44.83;;;23.30;;
9884;SDS011;4981;50.966;4.842;2023-07-02T05:54:52;52.03;;;24.40;;
9884;SDS011;4981;50.966;4.842;2023-07-02T05:57:19;52.17;;;24.67;;
9884;SDS011;4981;50.966;4.842;2023-07-02T05:59:46;43.47;;;23.20;;
9884;SDS011;4981;50.966;4.842;2023-07-02T06:02:13;53.77;;;23.63;;
9884;SDS011;4981;50.966;4.842;2023-07-02T06:04:40;49.33;;;23.60;;
9884;SDS011;4981;50.966;4.842;2023-07-02T06:07:07;45.33;;;22.57;;
9884;SDS011;4981;50.966;4.842;2023-07-02T06:09:34;44.43;;;24.33;;
9884;SDS011;4981;50.966;4.842;2023-07-02T06:12:02;43.77;;;22.57;;
9884;SDS011;4981;50.966;4.842;2023-07-02T06:14:30;46.23;;;24.03;;
9884;SDS011;4981;50.966;4.842;2023-07-02T06:16:57;48.57;;;24.17;;
9884;SDS011;4981;50.966;4.842;2023-07-02T06:19:24;52.00;;;22.77;;
9884;SDS011;4981;50.966;4.842;2023-07-02T06:21:51;46.27;;;22.57;;
9884;SDS011;4981;50.966;4.842;2023-07-02T06:24:18;43.60;;;23.77;;
9884;SDS011;4981;50.966;4.842;2023-07-02T06:26:45;42.00;;;22.00;;
9884;SDS011;4981;50.966;4.842;2023-07-02T06:29:13;45.50;;;22.33;;
9884;SDS011;4981;50.966;4.842;2023-07-02T06:31:40;54.93;;;22.37;;
9884;SDS011;4981;50.966;4.842;2023-07-02T06:34:07;43.00;;;22.67;;
9884;SDS011;4981;50.966;4.842;2023-07-02T06:36:34;40.70;;;21.07;;
9884;SDS011;4981;50.966;4.842;2023-07-02T06:39:01;44.37;;;21.50;;
9884;SDS011;4981;50.966;4.842;2023-07-02T06:41:28;52.70;;;23.77;;
9884;SDS011;4981;50.966;4.842;2023-07-02T06:43:55;40.93;;;21.27;;
9884;SDS011;4981;50.966;4.842;2023-07-02T06:46:24;45.10;;;21.47;;
9884;SDS011;4981;50.966;4.842;2023-07-02T06:48:51;38.40;;;20.97;;
9884;SDS011;4981;50.966;4.842;2023-07-02T06:51:18;41.10;;;20.63;;
9884;SDS011;4981;50.966;4.842;2023-07-02T06:53:46;42.83;;;22.20;;
9884;SDS011;4981;50.966;4.842;2023-07-02T06:56:13;45.80;;;22.53;;
9884;SDS011;4981;50.966;4.842;2023-07-02T06:58:41;40.37;;;21.73;;
9884;SDS011;4981;50.966;4.842;2023-07-02T07:01:08;42.73;;;20.73;;
9884;SDS011;4981;50.966;4.842;2023-07-02T07:03:37;39.40;;;21.90;;
9884;SDS011;4981;50.966;4.842;2023-07-02T07:06:04;40.60;;;20.47;;
9884;SDS011;4981;50.966;4.842;2023-07-02T07:08:31;45.73;;;20.70;;
9884;SDS011;4981;50.966;4.842;2023-07-02T07:10:58;41.87;;;20.87;;
9884;SDS011;4981;50.966;4.842;2023-07-02T07:13:25;43.97;;;20.23;;
9884;SDS011;4981;50.966;4.842;2023-07-02T07:15:52;38.30;;;19.43;;
9884;SDS011;4981;50.966;4.842;2023-07-02T07:18:18;44.67;;;21.43;;
9884;SDS011;4981;50.966;4.842;2023-07-02T07:20:47;38.63;;;20.50;;
9884;SDS011;4981;50.966;4.842;2023-07-02T07:23:14;42.33;;;19.13;;
9884;SDS011;4981;50.966;4.842;2023-07-02T07:25:42;40.43;;;19.67;;
9884;SDS011;4981;50.966;4.842;2023-07-02T07:28:09;37.57;;;18.20;;
9884;SDS011;4981;50.966;4.842;2023-07-02T07:30:40;31.67;;;18.10;;
9884;SDS011;4981;50.966;4.842;2023-07-02T07:33:07;33.50;;;17.07;;
9884;SDS011;4981;50.966;4.842;2023-07-02T07:35:34;34.37;;;17.00;;
9884;SDS011;4981;50.966;4.842;2023-07-02T07:38:02;34.03;;;17.60;;
9884;SDS011;4981;50.966;4.842;2023-07-02T07:40:29;37.73;;;19.90;;
9884;SDS011;4981;50.966;4.842;2023-07-02T07:42:56;36.93;;;16.93;;
9884;SDS011;4981;50.966;4.842;2023-07-02T07:45:24;36.20;;;18.00;;
9884;SDS011;4981;50.966;4.842;2023-07-02T07:47:51;26.33;;;15.57;;
9884;SDS011;4981;50.966;4.842;2023-07-02T07:50:17;34.93;;;15.43;;
9884;SDS011;4981;50.966;4.842;2023-07-02T07:52:44;31.90;;;15.63;;
9884;SDS011;4981;50.966;4.842;2023-07-02T07:55:13;26.80;;;13.83;;
9884;SDS011;4981;50.966;4.842;2023-07-02T07:57:40;23.80;;;13.17;;
9884;SDS011;4981;50.966;4.842;2023-07-02T08:00:08;26.93;;;12.63;;
9884;SDS011;4981;50.966;4.842;2023-07-02T08:02:36;24.27;;;12.27;;
9884;SDS011;4981;50.966;4.842;2023-07-02T08:05:03;25.30;;;11.17;;
9884;SDS011;4981;50.966;4.842;2023-07-02T08:07:31;28.03;;;11.67;;
9884;SDS011;4981;50.966;4.842;2023-07-02T08:09:58;25.07;;;11.83;;
9884;SDS011;4981;50.966;4.842;2023-07-02T08:12:29;24.53;;;11.67;;
9884;SDS011;4981;50.966;4.842;2023-07-02T08:14:56;25.10;;;12.13;;
9884;SDS011;4981;50.966;4.842;2023-07-02T08:17:23;19.13;;;10.73;;
9884;SDS011;4981;50.966;4.842;2023-07-02T08:19:49;18.10;;;9.73;;
9884;SDS011;4981;50.966;4.842;2023-07-02T08:22:16;16.37;;;8.63;;
9884;SDS011;4981;50.966;4.842;2023-07-02T08:24:43;17.53;;;8.60;;
9884;SDS011;4981;50.966;4.842;2023-07-02T08:27:14;16.77;;;7.70;;
9884;SDS011;4981;50.966;4.842;2023-07-02T08:29:45;18.03;;;9.23;;
9884;SDS011;4981;50.966;4.842;2023-07-02T08:32:12;17.23;;;7.90;;
9884;SDS011;4981;50.966;4.842;2023-07-02T08:34:39;12.43;;;6.73;;
9884;SDS011;4981;50.966;4.842;2023-07-02T08:37:06;17.93;;;7.40;;
9884;SDS011;4981;50.966;4.842;2023-07-02T08:39:33;18.10;;;7.33;;
9884;SDS011;4981;50.966;4.842;2023-07-02T08:42:01;14.00;;;7.00;;
9884;SDS011;4981;50.966;4.842;2023-07-02T08:44:28;14.83;;;7.77;;
9884;SDS011;4981;50.966;4.842;2023-07-02T08:46:56;13.40;;;7.37;;
9884;SDS011;4981;50.966;4.842;2023-07-02T08:49:24;13.53;;;7.10;;
9884;SDS011;4981;50.966;4.842;2023-07-02T08:51:51;14.20;;;7.43;;
9884;SDS011;4981;50.966;4.842;2023-07-02T08:54:18;14.63;;;7.27;;
9884;SDS011;4981;50.966;4.842;2023-07-02T08:56:45;18.53;;;8.10;;
9884;SDS011;4981;50.966;4.842;2023-07-02T08:59:13;13.87;;;7.07;;
9884;SDS011;4981;50.966;4.842;2023-07-02T09:01:45;12.77;;;6.70;;
9884;SDS011;4981;50.966;4.842;2023-07-02T09:04:18;15.50;;;7.53;;
9884;SDS011;4981;50.966;4.842;2023-07-02T09:06:46;16.47;;;7.37;;
9884;SDS011;4981;50.966;4.842;2023-07-02T09:09:14;15.33;;;7.40;;
9884;SDS011;4981;50.966;4.842;2023-07-02T09:11:47;19.67;;;7.83;;
9884;SDS011;4981;50.966;4.842;2023-07-02T09:14:25;18.13;;;7.90;;
9884;SDS011;4981;50.966;4.842;2023-07-02T09:17:03;16.90;;;7.87;;
9884;SDS011;4981;50.966;4.842;2023-07-02T09:19:32;15.30;;;6.80;;
9884;SDS011;4981;50.966;4.842;2023-07-02T09:21:59;14.30;;;6.80;;
9884;SDS011;4981;50.966;4.842;2023-07-02T09:24:28;15.97;;;8.17;;
9884;SDS011;4981;50.966;4.842;2023-07-02T09:26:57;13.80;;;7.07;;
9884;SDS011;4981;50.966;4.842;2023-07-02T09:29:25;17.10;;;8.43;;
9884;SDS011;4981;50.966;4.842;2023-07-02T09:31:53;16.57;;;7.73;;
9884;SDS011;4981;50.966;4.842;2023-07-02T09:34:26;18.27;;;7.90;;
9884;SDS011;4981;50.966;4.842;2023-07-02T09:36:56;15.43;;;7.30;;
9884;SDS011;4981;50.966;4.842;2023-07-02T09:39:27;17.20;;;7.50;;
9884;SDS011;4981;50.966;4.842;2023-07-02T09:41:55;23.27;;;8.33;;
9884;SDS011;4981;50.966;4.842;2023-07-02T09:44:25;16.83;;;8.67;;
9884;SDS011;4981;50.966;4.842;2023-07-02T09:46:57;20.63;;;8.83;;
9884;SDS011;4981;50.966;4.842;2023-07-02T09:49:29;16.60;;;9.37;;
9884;SDS011;4981;50.966;4.842;2023-07-02T09:52:00;20.30;;;8.83;;
9884;SDS011;4981;50.966;4.842;2023-07-02T09:54:27;17.60;;;9.43;;
9884;SDS011;4981;50.966;4.842;2023-07-02T09:56:55;20.30;;;9.33;;
9884;SDS011;4981;50.966;4.842;2023-07-02T09:59:22;17.70;;;9.23;;
9884;SDS011;4981;50.966;4.842;2023-07-02T10:01:49;17.60;;;8.93;;
9884;SDS011;4981;50.966;4.842;2023-07-02T10:04:17;21.50;;;10.07;;
9884;SDS011;4981;50.966;4.842;2023-07-02T10:06:46;17.00;;;9.50;;
9884;SDS011;4981;50.966;4.842;2023-07-02T10:09:15;16.47;;;8.60;;
9884;SDS011;4981;50.966;4.842;2023-07-02T10:11:42;20.43;;;9.43;;
9884;SDS011;4981;50.966;4.842;2023-07-02T10:14:09;19.33;;;9.77;;
9884;SDS011;4981;50.966;4.842;2023-07-02T10:16:49;20.07;;;11.17;;
9884;SDS011;4981;50.966;4.842;2023-07-02T10:19:17;19.33;;;10.00;;
9884;SDS011;4981;50.966;4.842;2023-07-02T10:21:44;20.27;;;11.33;;
9884;SDS011;4981;50.966;4.842;2023-07-02T10:24:12;15.80;;;9.50;;
9884;SDS011;4981;50.966;4.842;2023-07-02T10:29:24;18.00;;;10.20;;
9884;SDS011;4981;50.966;4.842;2023-07-02T10:31:51;20.83;;;10.10;;
9884;SDS011;4981;50.966;4.842;2023-07-02T10:34:29;20.00;;;9.77;;
9884;SDS011;4981;50.966;4.842;2023-07-02T10:36:57;21.20;;;10.40;;
9884;SDS011;4981;50.966;4.842;2023-07-02T10:39:25;23.67;;;10.73;;
9884;SDS011;4981;50.966;4.842;2023-07-02T10:42:02;22.13;;;9.97;;
9884;SDS011;4981;50.966;4.842;2023-07-02T10:44:30;19.73;;;9.63;;
9884;SDS011;4981;50.966;4.842;2023-07-02T10:46:57;23.57;;;11.07;;
9884;SDS011;4981;50.966;4.842;2023-07-02T10:49:30;20.07;;;10.30;;
9884;SDS011;4981;50.966;4.842;2023-07-02T10:51:57;23.73;;;10.13;;
9884;SDS011;4981;50.966;4.842;2023-07-02T10:54:37;23.90;;;11.27;;
9884;SDS011;4981;50.966;4.842;2023-07-02T10:57:05;19.83;;;10.03;;
9884;SDS011;4981;50.966;4.842;2023-07-02T10:59:32;19.67;;;9.87;;
9884;SDS011;4981;50.966;4.842;2023-07-02T11:01:59;20.70;;;10.70;;
9884;SDS011;4981;50.966;4.842;2023-07-02T11:04:28;17.30;;;9.83;;
9884;SDS011;4981;50.966;4.842;2023-07-02T11:06:56;31.20;;;11.60;;
9884;SDS011;4981;50.966;4.842;2023-07-02T11:09:23;20.13;;;10.73;;
9884;SDS011;4981;50.966;4.842;2023-07-02T11:11:52;24.40;;;10.43;;
9884;SDS011;4981;50.966;4.842;2023-07-02T11:14:27;18.67;;;11.03;;
9884;SDS011;4981;50.966;4.842;2023-07-02T11:16:54;23.27;;;10.77;;
9884;SDS011;4981;50.966;4.842;2023-07-02T11:19:22;19.77;;;9.83;;
9884;SDS011;4981;50.966;4.842;2023-07-02T11:21:52;19.33;;;10.10;;
9884;SDS011;4981;50.966;4.842;2023-07-02T11:24:27;22.50;;;10.40;;
9884;SDS011;4981;50.966;4.842;2023-07-02T11:26:57;22.57;;;10.47;;
9884;SDS011;4981;50.966;4.842;2023-07-02T11:29:24;20.73;;;10.07;;
9884;SDS011;4981;50.966;4.842;2023-07-02T11:31:52;20.20;;;10.70;;
9884;SDS011;4981;50.966;4.842;2023-07-02T11:34:20;22.30;;;9.60;;
9884;SDS011;4981;50.966;4.842;2023-07-02T11:36:49;22.70;;;10.77;;
9884;SDS011;4981;50.966;4.842;2023-07-02T11:39:19;20.00;;;10.33;;
9884;SDS011;4981;50.966;4.842;2023-07-02T11:41:47;17.83;;;9.87;;
9884;SDS011;4981;50.966;4.842;2023-07-02T11:44:16;18.17;;;8.97;;
9884;SDS011;4981;50.966;4.842;2023-07-02T11:46:44;20.37;;;9.57;;
9884;SDS011;4981;50.966;4.842;2023-07-02T11:49:12;17.90;;;8.93;;
9884;SDS011;4981;50.966;4.842;2023-07-02T11:51:39;21.73;;;9.90;;
9884;SDS011;4981;50.966;4.842;2023-07-02T11:54:07;21.33;;;10.00;;
9884;SDS011;4981;50.966;4.842;2023-07-02T11:56:34;17.70;;;9.57;;
9884;SDS011;4981;50.966;4.842;2023-07-02T11:59:01;22.87;;;10.33;;
9884;SDS011;4981;50.966;4.842;2023-07-02T12:01:29;19.40;;;9.60;;
9884;SDS011;4981;50.966;4.842;2023-07-02T12:03:56;21.65;;;10.48;;
9884;SDS011;4981;50.966;4.842;2023-07-02T12:06:23;27.37;;;11.20;;
9884;SDS011;4981;50.966;4.842;2023-07-02T12:08:50;19.83;;;10.47;;
9884;SDS011;4981;50.966;4.842;2023-07-02T12:11:17;22.87;;;9.60;;
9884;SDS011;4981;50.966;4.842;2023-07-02T12:13:44;20.13;;;9.57;;
9884;SDS011;4981;50.966;4.842;2023-07-02T12:16:12;24.38;;;9.88;;
9884;SDS011;4981;50.966;4.842;2023-07-02T12:18:40;19.37;;;10.00;;
9884;SDS011;4981;50.966;4.842;2023-07-02T12:21:07;20.93;;;9.60;;
9884;SDS011;4981;50.966;4.842;2023-07-02T12:23:34;21.60;;;10.00;;
9884;SDS011;4981;50.966;4.842;2023-07-02T12:26:01;17.17;;;9.97;;
9884;SDS011;4981;50.966;4.842;2023-07-02T12:28:28;21.93;;;10.40;;
9884;SDS011;4981;50.966;4.842;2023-07-02T12:30:55;20.98;;;8.75;;
9884;SDS011;4981;50.966;4.842;2023-07-02T12:33:22;20.00;;;10.45;;
9884;SDS011;4981;50.966;4.842;2023-07-02T12:35:50;19.23;;;10.33;;
9884;SDS011;4981;50.966;4.842;2023-07-02T12:38:17;20.23;;;9.80;;
9884;SDS011;4981;50.966;4.842;2023-07-02T12:40:44;22.83;;;9.85;;
9884;SDS011;4981;50.966;4.842;2023-07-02T12:43:11;21.83;;;10.07;;
9884;SDS011;4981;50.966;4.842;2023-07-02T12:45:38;19.70;;;10.18;;
9884;SDS011;4981;50.966;4.842;2023-07-02T12:48:05;22.70;;;9.80;;
9884;SDS011;4981;50.966;4.842;2023-07-02T12:50:32;21.23;;;9.70;;
9884;SDS011;4981;50.966;4.842;2023-07-02T12:53:00;19.30;;;9.02;;
9884;SDS011;4981;50.966;4.842;2023-07-02T12:55:27;21.95;;;9.90;;
9884;SDS011;4981;50.966;4.842;2023-07-02T12:57:54;19.88;;;9.43;;
9884;SDS011;4981;50.966;4.842;2023-07-02T13:00:21;18.52;;;9.73;;
9884;SDS011;4981;50.966;4.842;2023-07-02T13:02:48;19.65;;;9.45;;
9884;SDS011;4981;50.966;4.842;2023-07-02T13:05:15;16.88;;;9.25;;
9884;SDS011;4981;50.966;4.842;2023-07-02T13:07:43;17.98;;;8.95;;
9884;SDS011;4981;50.966;4.842;2023-07-02T13:10:11;17.73;;;9.02;;
9884;SDS011;4981;50.966;4.842;2023-07-02T13:12:38;18.60;;;8.43;;
9884;SDS011;4981;50.966;4.842;2023-07-02T13:15:05;16.15;;;8.65;;
9884;SDS011;4981;50.966;4.842;2023-07-02T13:17:33;19.50;;;9.18;;
9884;SDS011;4981;50.966;4.842;2023-07-02T13:20:00;19.95;;;9.40;;
9884;SDS011;4981;50.966;4.842;2023-07-02T13:22:27;19.75;;;9.90;;
9884;SDS011;4981;50.966;4.842;2023-07-02T13:24:54;15.38;;;8.65;;
9884;SDS011;4981;50.966;4.842;2023-07-02T13:27:23;16.67;;;8.75;;
9884;SDS011;4981;50.966;4.842;2023-07-02T13:29:49;15.57;;;9.30;;
9884;SDS011;4981;50.966;4.842;2023-07-02T13:32:16;18.50;;;8.88;;
9884;SDS011;4981;50.966;4.842;2023-07-02T13:34:43;18.27;;;8.73;;
9884;SDS011;4981;50.966;4.842;2023-07-02T13:37:10;16.75;;;8.50;;
9884;SDS011;4981;50.966;4.842;2023-07-02T13:39:39;18.75;;;8.18;;
9884;SDS011;4981;50.966;4.842;2023-07-02T13:42:06;14.93;;;8.60;;
9884;SDS011;4981;50.966;4.842;2023-07-02T13:44:34;16.50;;;9.05;;
9884;SDS011;4981;50.966;4.842;2023-07-02T13:47:01;17.80;;;8.75;;
9884;SDS011;4981;50.966;4.842;2023-07-02T13:49:28;18.70;;;9.00;;
9884;SDS011;4981;50.966;4.842;2023-07-02T13:51:55;14.60;;;8.30;;
9884;SDS011;4981;50.966;4.842;2023-07-02T13:54:22;17.50;;;8.40;;
9884;SDS011;4981;50.966;4.842;2023-07-02T13:56:49;18.63;;;8.75;;
9884;SDS011;4981;50.966;4.842;2023-07-02T13:59:18;17.27;;;8.52;;
9884;SDS011;4981;50.966;4.842;2023-07-02T14:01:46;15.45;;;8.13;;
9884;SDS011;4981;50.966;4.842;2023-07-02T14:04:14;15.48;;;8.60;;
9884;SDS011;4981;50.966;4.842;2023-07-02T14:06:42;17.92;;;8.48;;
9884;SDS011;4981;50.966;4.842;2023-07-02T14:09:10;15.75;;;8.35;;
9884;SDS011;4981;50.966;4.842;2023-07-02T14:11:38;15.77;;;8.40;;
9884;SDS011;4981;50.966;4.842;2023-07-02T14:14:08;18.13;;;8.25;;
9884;SDS011;4981;50.966;4.842;2023-07-02T14:16:36;18.00;;;8.43;;
9884;SDS011;4981;50.966;4.842;2023-07-02T14:19:03;14.55;;;7.88;;
9884;SDS011;4981;50.966;4.842;2023-07-02T14:21:31;16.30;;;8.35;;
9884;SDS011;4981;50.966;4.842;2023-07-02T14:23:58;13.90;;;7.22;;
9884;SDS011;4981;50.966;4.842;2023-07-02T14:26:25;15.80;;;7.80;;
9884;SDS011;4981;50.966;4.842;2023-07-02T14:28:52;18.85;;;8.77;;
9884;SDS011;4981;50.966;4.842;2023-07-02T14:31:19;20.42;;;7.32;;
9884;SDS011;4981;50.966;4.842;2023-07-02T14:33:48;15.30;;;8.30;;
9884;SDS011;4981;50.966;4.842;2023-07-02T14:36:15;15.90;;;8.40;;
9884;SDS011;4981;50.966;4.842;2023-07-02T14:38:42;15.52;;;7.57;;
9884;SDS011;4981;50.966;4.842;2023-07-02T14:41:09;15.73;;;7.65;;
9884;SDS011;4981;50.966;4.842;2023-07-02T14:43:36;14.27;;;7.93;;
9884;SDS011;4981;50.966;4.842;2023-07-02T14:46:03;15.57;;;7.90;;
9884;SDS011;4981;50.966;4.842;2023-07-02T14:48:30;19.35;;;8.70;;
9884;SDS011;4981;50.966;4.842;2023-07-02T14:50:59;16.83;;;7.55;;
9884;SDS011;4981;50.966;4.842;2023-07-02T14:53:27;14.20;;;7.68;;
9884;SDS011;4981;50.966;4.842;2023-07-02T14:55:56;18.23;;;9.05;;
9884;SDS011;4981;50.966;4.842;2023-07-02T14:58:25;13.73;;;7.47;;
9884;SDS011;4981;50.966;4.842;2023-07-02T15:00:54;15.52;;;8.35;;
9884;SDS011;4981;50.966;4.842;2023-07-02T15:03:22;17.52;;;7.50;;
9884;SDS011;4981;50.966;4.842;2023-07-02T15:05:50;14.90;;;7.57;;
9884;SDS011;4981;50.966;4.842;2023-07-02T15:08:19;18.65;;;7.45;;
9884;SDS011;4981;50.966;4.842;2023-07-02T15:10:47;13.90;;;7.40;;
9884;SDS011;4981;50.966;4.842;2023-07-02T15:13:16;13.23;;;7.53;;
9884;SDS011;4981;50.966;4.842;2023-07-02T15:15:44;14.65;;;7.63;;
9884;SDS011;4981;50.966;4.842;2023-07-02T15:18:11;17.90;;;8.00;;
9884;SDS011;4981;50.966;4.842;2023-07-02T15:20:38;15.05;;;7.47;;
9884;SDS011;4981;50.966;4.842;2023-07-02T15:23:06;16.38;;;7.40;;
9884;SDS011;4981;50.966;4.842;2023-07-02T15:25:35;18.15;;;7.75;;
9884;SDS011;4981;50.966;4.842;2023-07-02T15:28:01;19.35;;;7.32;;